sensor_id;sensor_type;location;lat;lon;timestamp;pressure;altitude;pressure_sealevel;temperature;humidity
69219;BME280;56232;53.384;-2.732;2022-12-07T00:00:01;102253.53;;;1.80;40.97
69219;BME280;56232;53.384;-2.732;2022-12-07T00:02:26;102250.62;;;1.21;40.98
69219;BME280;56232;53.384;-2.732;2022-12-07T00:04:51;102244.07;;;1.13;41.14
69219;BME280;56232;53.384;-2.732;2022-12-07T00:07:17;102245.30;;;1.12;41.18
69219;BME280;56232;53.384;-2.732;2022-12-07T00:09:42;102242.20;;;0.57;41.17
69219;BME280;56232;53.384;-2.732;2022-12-07T00:12:08;102242.13;;;1.04;41.17
69219;BME280;56232;53.384;-2.732;2022-12-07T00:14:33;102237.62;;;1.00;41.14
69219;BME280;56232;53.384;-2.732;2022-12-07T00:16:59;102234.73;;;0.90;41.25
69219;BME280;56232;53.384;-2.732;2022-12-07T00:19:24;102236.93;;;0.91;41.13
69219;BME280;56232;53.384;-2.732;2022-12-07T00:21:50;102238.04;;;0.85;41.13
69219;BME280;56232;53.384;-2.732;2022-12-07T00:24:15;102237.92;;;0.88;41.18
69219;BME280;56232;53.384;-2.732;2022-12-07T00:26:42;102238.79;;;0.88;41.19
69219;BME280;56232;53.384;-2.732;2022-12-07T00:29:09;102234.97;;;1.04;41.20
69219;BME280;56232;53.384;-2.732;2022-12-07T00:31:33;102234.26;;;1.16;41.02
69219;BME280;56232;53.384;-2.732;2022-12-07T00:33:58;102237.45;;;1.35;41.03
69219;BME280;56232;53.384;-2.732;2022-12-07T00:36:23;102233.28;;;0.96;40.93
69219;BME280;56232;53.384;-2.732;2022-12-07T00:38:48;102234.58;;;1.55;40.88
69219;BME280;56232;53.384;-2.732;2022-12-07T00:41:16;102229.78;;;1.78;40.94
69219;BME280;56232;53.384;-2.732;2022-12-07T00:43:41;102222.80;;;2.09;40.57
69219;BME280;56232;53.384;-2.732;2022-12-07T00:46:05;102224.86;;;1.73;40.37
69219;BME280;56232;53.384;-2.732;2022-12-07T00:48:30;102218.36;;;2.25;40.12
69219;BME280;56232;53.384;-2.732;2022-12-07T00:50:56;102216.73;;;1.71;40.16
69219;BME280;56232;53.384;-2.732;2022-12-07T00:53:22;102212.89;;;1.79;40.20
69219;BME280;56232;53.384;-2.732;2022-12-07T00:55:46;102205.62;;;1.36;40.19
69219;BME280;56232;53.384;-2.732;2022-12-07T00:58:12;102203.58;;;2.50;40.17
69219;BME280;56232;53.384;-2.732;2022-12-07T01:00:39;102200.97;;;1.46;39.96
69219;BME280;56232;53.384;-2.732;2022-12-07T01:03:03;102198.96;;;1.44;39.93
69219;BME280;56232;53.384;-2.732;2022-12-07T01:05:28;102199.05;;;1.95;39.94
69219;BME280;56232;53.384;-2.732;2022-12-07T01:07:54;102196.81;;;1.28;40.01
69219;BME280;56232;53.384;-2.732;2022-12-07T01:10:20;102198.31;;;2.40;40.05
69219;BME280;56232;53.384;-2.732;2022-12-07T01:12:45;102198.30;;;1.94;40.04
69219;BME280;56232;53.384;-2.732;2022-12-07T01:15:11;102199.24;;;2.42;40.02
69219;BME280;56232;53.384;-2.732;2022-12-07T01:17:37;102200.80;;;1.92;40.07
69219;BME280;56232;53.384;-2.732;2022-12-07T01:20:04;102200.12;;;1.94;40.09
69219;BME280;56232;53.384;-2.732;2022-12-07T01:22:28;102198.23;;;1.87;40.01
69219;BME280;56232;53.384;-2.732;2022-12-07T01:24:53;102196.94;;;2.44;40.13
69219;BME280;56232;53.384;-2.732;2022-12-07T01:27:18;102195.64;;;1.37;39.97
69219;BME280;56232;53.384;-2.732;2022-12-07T01:29:44;102195.24;;;1.86;40.09
69219;BME280;56232;53.384;-2.732;2022-12-07T01:32:10;102190.96;;;1.08;40.12
69219;BME280;56232;53.384;-2.732;2022-12-07T01:34:34;102187.62;;;1.98;40.23
69219;BME280;56232;53.384;-2.732;2022-12-07T01:37:00;102190.94;;;1.13;40.66
69219;BME280;56232;53.384;-2.732;2022-12-07T01:39:26;102191.07;;;0.46;40.74
69219;BME280;56232;53.384;-2.732;2022-12-07T01:41:52;102187.49;;;1.50;40.68
69219;BME280;56232;53.384;-2.732;2022-12-07T01:44:21;102190.36;;;0.83;40.85
69219;BME280;56232;53.384;-2.732;2022-12-07T01:46:44;102187.03;;;1.20;40.98
69219;BME280;56232;53.384;-2.732;2022-12-07T01:49:10;102182.84;;;1.14;41.03
69219;BME280;56232;53.384;-2.732;2022-12-07T01:51:34;102178.39;;;0.99;40.98
69219;BME280;56232;53.384;-2.732;2022-12-07T01:54:00;102181.87;;;1.26;41.10
69219;BME280;56232;53.384;-2.732;2022-12-07T01:56:26;102183.57;;;0.71;41.13
69219;BME280;56232;53.384;-2.732;2022-12-07T01:58:51;102182.64;;;0.53;41.10
69219;BME280;56232;53.384;-2.732;2022-12-07T02:01:15;102179.84;;;0.91;41.26
69219;BME280;56232;53.384;-2.732;2022-12-07T02:03:42;102180.01;;;0.83;41.25
69219;BME280;56232;53.384;-2.732;2022-12-07T02:06:08;102177.71;;;0.27;41.29
69219;BME280;56232;53.384;-2.732;2022-12-07T02:08:32;102176.24;;;-0.35;41.33
69219;BME280;56232;53.384;-2.732;2022-12-07T02:10:57;102175.59;;;1.12;41.36
69219;BME280;56232;53.384;-2.732;2022-12-07T02:13:24;102175.11;;;0.48;41.33
69219;BME280;56232;53.384;-2.732;2022-12-07T02:15:59;102173.95;;;0.49;41.30
69219;BME280;56232;53.384;-2.732;2022-12-07T02:18:17;102174.84;;;1.06;41.27
69219;BME280;56232;53.384;-2.732;2022-12-07T02:20:43;102174.34;;;0.41;41.25
69219;BME280;56232;53.384;-2.732;2022-12-07T02:25:43;102174.94;;;-0.26;41.26
69219;BME280;56232;53.384;-2.732;2022-12-07T02:28:00;102173.42;;;0.15;41.27
69219;BME280;56232;53.384;-2.732;2022-12-07T02:30:27;102173.45;;;0.75;41.34
69219;BME280;56232;53.384;-2.732;2022-12-07T02:32:53;102167.54;;;0.16;41.33
69219;BME280;56232;53.384;-2.732;2022-12-07T02:35:18;102167.42;;;-0.23;41.23
69219;BME280;56232;53.384;-2.732;2022-12-07T02:37:43;102163.21;;;0.77;41.27
69219;BME280;56232;53.384;-2.732;2022-12-07T02:40:09;102158.96;;;0.13;41.30
69219;BME280;56232;53.384;-2.732;2022-12-07T02:42:34;102158.36;;;0.73;41.20
69219;BME280;56232;53.384;-2.732;2022-12-07T02:44:55;102159.79;;;0.70;41.19
69219;BME280;56232;53.384;-2.732;2022-12-07T02:47:21;102158.54;;;0.05;41.13
69219;BME280;56232;53.384;-2.732;2022-12-07T02:49:46;102153.61;;;-0.05;41.16
69219;BME280;56232;53.384;-2.732;2022-12-07T02:52:12;102152.08;;;0.54;41.11
69219;BME280;56232;53.384;-2.732;2022-12-07T02:54:38;102152.98;;;-0.63;41.14
69219;BME280;56232;53.384;-2.732;2022-12-07T02:57:14;102155.07;;;-0.15;41.09
69219;BME280;56232;53.384;-2.732;2022-12-07T02:59:38;102152.11;;;0.45;41.00
69219;BME280;56232;53.384;-2.732;2022-12-07T03:02:02;102149.40;;;0.46;40.92
69219;BME280;56232;53.384;-2.732;2022-12-07T03:04:29;102150.20;;;0.36;40.88
69219;BME280;56232;53.384;-2.732;2022-12-07T03:06:50;102146.65;;;0.31;40.85
69219;BME280;56232;53.384;-2.732;2022-12-07T03:09:14;102141.76;;;-0.43;40.86
69219;BME280;56232;53.384;-2.732;2022-12-07T03:11:41;102136.89;;;-0.55;40.89
69219;BME280;56232;53.384;-2.732;2022-12-07T03:14:06;102139.21;;;-0.14;41.06
69219;BME280;56232;53.384;-2.732;2022-12-07T03:16:28;102136.85;;;-0.19;41.07
69219;BME280;56232;53.384;-2.732;2022-12-07T03:18:54;102135.39;;;-0.21;41.03
69219;BME280;56232;53.384;-2.732;2022-12-07T03:21:19;102137.20;;;-0.22;41.02
69219;BME280;56232;53.384;-2.732;2022-12-07T03:23:45;102139.50;;;-0.19;40.98
69219;BME280;56232;53.384;-2.732;2022-12-07T03:26:10;102140.66;;;-0.18;40.94
69219;BME280;56232;53.384;-2.732;2022-12-07T03:28:36;102136.65;;;0.28;40.91
69219;BME280;56232;53.384;-2.732;2022-12-07T03:31:01;102136.02;;;-0.30;40.86
69219;BME280;56232;53.384;-2.732;2022-12-07T03:33:28;102134.75;;;-1.01;40.91
69219;BME280;56232;53.384;-2.732;2022-12-07T03:35:52;102131.73;;;-0.57;41.03
69219;BME280;56232;53.384;-2.732;2022-12-07T03:38:18;102131.54;;;-0.64;41.05
69219;BME280;56232;53.384;-2.732;2022-12-07T03:40:45;102130.85;;;-0.10;40.99
69219;BME280;56232;53.384;-2.732;2022-12-07T03:43:06;102126.95;;;-0.59;40.91
69219;BME280;56232;53.384;-2.732;2022-12-07T03:45:37;102122.09;;;-0.55;40.88
69219;BME280;56232;53.384;-2.732;2022-12-07T03:48:02;102120.25;;;-0.51;40.86
69219;BME280;56232;53.384;-2.732;2022-12-07T03:50:29;102120.52;;;-0.56;40.83
69219;BME280;56232;53.384;-2.732;2022-12-07T03:52:53;102117.64;;;-0.60;40.80
69219;BME280;56232;53.384;-2.732;2022-12-07T03:55:15;102116.99;;;-0.61;40.71
69219;BME280;56232;53.384;-2.732;2022-12-07T03:57:40;102115.25;;;-0.70;40.71
69219;BME280;56232;53.384;-2.732;2022-12-07T04:00:07;102113.33;;;-0.83;40.76
69219;BME280;56232;53.384;-2.732;2022-12-07T04:02:28;102114.95;;;0.26;40.68
69219;BME280;56232;53.384;-2.732;2022-12-07T04:04:53;102108.58;;;-0.94;40.66
69219;BME280;56232;53.384;-2.732;2022-12-07T04:07:19;102105.22;;;-1.01;40.62
69219;BME280;56232;53.384;-2.732;2022-12-07T04:09:45;102106.28;;;-0.59;40.62
69219;BME280;56232;53.384;-2.732;2022-12-07T04:12:10;102103.43;;;-1.12;40.60
69219;BME280;56232;53.384;-2.732;2022-12-07T04:14:35;102101.29;;;-0.67;40.57
69219;BME280;56232;53.384;-2.732;2022-12-07T04:17:01;102101.28;;;-1.34;40.59
69219;BME280;56232;53.384;-2.732;2022-12-07T04:19:28;102102.53;;;-1.44;40.66
69219;BME280;56232;53.384;-2.732;2022-12-07T04:21:52;102106.05;;;-0.42;40.73
69219;BME280;56232;53.384;-2.732;2022-12-07T04:24:17;102104.10;;;-0.40;40.71
69219;BME280;56232;53.384;-2.732;2022-12-07T04:26:44;102104.62;;;-1.49;40.65
69219;BME280;56232;53.384;-2.732;2022-12-07T04:29:10;102104.66;;;-1.49;40.62
69219;BME280;56232;53.384;-2.732;2022-12-07T04:31:34;102102.67;;;-0.30;40.52
69219;BME280;56232;53.384;-2.732;2022-12-07T04:34:00;102098.55;;;-0.35;40.56
69219;BME280;56232;53.384;-2.732;2022-12-07T04:36:25;102100.11;;;-1.04;40.58
69219;BME280;56232;53.384;-2.732;2022-12-07T04:38:53;102100.18;;;-0.59;40.67
69219;BME280;56232;53.384;-2.732;2022-12-07T04:41:16;102094.10;;;-0.63;40.68
69219;BME280;56232;53.384;-2.732;2022-12-07T04:43:42;102091.10;;;-1.24;40.65
69219;BME280;56232;53.384;-2.732;2022-12-07T04:46:07;102089.58;;;-1.74;40.60
69219;BME280;56232;53.384;-2.732;2022-12-07T04:48:33;102088.49;;;-0.60;40.49
69219;BME280;56232;53.384;-2.732;2022-12-07T04:50:57;102092.34;;;-1.35;40.55
69219;BME280;56232;53.384;-2.732;2022-12-07T04:53:23;102089.96;;;-0.88;40.58
69219;BME280;56232;53.384;-2.732;2022-12-07T04:55:48;102090.20;;;-1.62;40.53
69219;BME280;56232;53.384;-2.732;2022-12-07T04:58:13;102088.01;;;-1.12;40.55
69219;BME280;56232;53.384;-2.732;2022-12-07T05:00:40;102086.48;;;-1.22;40.57
69219;BME280;56232;53.384;-2.732;2022-12-07T05:03:03;102089.05;;;-1.19;40.57
69219;BME280;56232;53.384;-2.732;2022-12-07T05:05:28;102091.04;;;-1.13;40.66
69219;BME280;56232;53.384;-2.732;2022-12-07T05:07:53;102090.55;;;-1.68;40.73
69219;BME280;56232;53.384;-2.732;2022-12-07T05:10:18;102086.28;;;-1.11;40.83
69219;BME280;56232;53.384;-2.732;2022-12-07T05:12:43;102087.91;;;-1.03;40.64
69219;BME280;56232;53.384;-2.732;2022-12-07T05:15:09;102087.30;;;-1.01;40.67
69219;BME280;56232;53.384;-2.732;2022-12-07T05:17:33;102088.85;;;-1.02;40.73
69219;BME280;56232;53.384;-2.732;2022-12-07T05:19:59;102085.46;;;-1.65;40.70
69219;BME280;56232;53.384;-2.732;2022-12-07T05:22:23;102084.69;;;-1.01;40.77
69219;BME280;56232;53.384;-2.732;2022-12-07T05:24:49;102082.59;;;-1.03;40.71
69219;BME280;56232;53.384;-2.732;2022-12-07T05:27:13;102082.84;;;-1.10;40.72
69219;BME280;56232;53.384;-2.732;2022-12-07T05:29:40;102082.56;;;-1.72;40.76
69219;BME280;56232;53.384;-2.732;2022-12-07T05:32:04;102081.08;;;-1.11;40.81
69219;BME280;56232;53.384;-2.732;2022-12-07T05:34:29;102081.11;;;-1.74;40.65
69219;BME280;56232;53.384;-2.732;2022-12-07T05:36:54;102080.40;;;-1.82;40.78
69219;BME280;56232;53.384;-2.732;2022-12-07T05:39:19;102080.87;;;-1.84;40.82
69219;BME280;56232;53.384;-2.732;2022-12-07T05:41:44;102082.70;;;-1.21;40.89
69219;BME280;56232;53.384;-2.732;2022-12-07T05:44:09;102084.65;;;-1.11;40.65
69219;BME280;56232;53.384;-2.732;2022-12-07T05:46:35;102083.26;;;-1.17;40.81
69219;BME280;56232;53.384;-2.732;2022-12-07T05:49:01;102083.02;;;-1.07;40.96
69219;BME280;56232;53.384;-2.732;2022-12-07T05:51:26;102081.35;;;-0.98;40.75
69219;BME280;56232;53.384;-2.732;2022-12-07T05:53:51;102084.81;;;-1.09;40.97
69219;BME280;56232;53.384;-2.732;2022-12-07T05:56:16;102085.29;;;-0.96;40.90
69219;BME280;56232;53.384;-2.732;2022-12-07T05:58:41;102084.99;;;-1.36;40.73
69219;BME280;56232;53.384;-2.732;2022-12-07T06:01:06;102079.12;;;-1.77;40.70
69219;BME280;56232;53.384;-2.732;2022-12-07T06:03:31;102080.63;;;-0.56;40.59
69219;BME280;56232;53.384;-2.732;2022-12-07T06:05:57;102078.13;;;-0.49;40.57
69219;BME280;56232;53.384;-2.732;2022-12-07T06:08:23;102073.60;;;-0.48;40.50
69219;BME280;56232;53.384;-2.732;2022-12-07T06:10:48;102071.87;;;-1.14;40.37
69219;BME280;56232;53.384;-2.732;2022-12-07T06:13:14;102074.75;;;-1.16;40.56
69219;BME280;56232;53.384;-2.732;2022-12-07T06:15:41;102075.28;;;-0.41;40.35
69219;BME280;56232;53.384;-2.732;2022-12-07T06:18:05;102072.32;;;-0.36;40.35
69219;BME280;56232;53.384;-2.732;2022-12-07T06:20:31;102070.78;;;-0.37;40.31
69219;BME280;56232;53.384;-2.732;2022-12-07T06:22:56;102071.67;;;-0.92;40.27
69219;BME280;56232;53.384;-2.732;2022-12-07T06:25:21;102070.42;;;-0.30;40.17
69219;BME280;56232;53.384;-2.732;2022-12-07T06:27:47;102069.02;;;-0.94;40.40
69219;BME280;56232;53.384;-2.732;2022-12-07T06:30:12;102065.18;;;-1.00;40.40
69219;BME280;56232;53.384;-2.732;2022-12-07T06:32:39;102067.47;;;-1.37;40.43
69219;BME280;56232;53.384;-2.732;2022-12-07T06:35:04;102067.10;;;-0.83;40.30
69219;BME280;56232;53.384;-2.732;2022-12-07T06:37:29;102067.76;;;-0.85;40.31
69219;BME280;56232;53.384;-2.732;2022-12-07T06:39:55;102067.24;;;-0.93;40.42
69219;BME280;56232;53.384;-2.732;2022-12-07T06:42:20;102066.25;;;-0.34;40.38
69219;BME280;56232;53.384;-2.732;2022-12-07T06:44:45;102060.59;;;-0.99;40.51
69219;BME280;56232;53.384;-2.732;2022-12-07T06:47:11;102060.27;;;-0.94;40.51
69219;BME280;56232;53.384;-2.732;2022-12-07T06:49:37;102063.35;;;-0.32;40.46
69219;BME280;56232;53.384;-2.732;2022-12-07T06:52:03;102062.91;;;-1.52;40.50
69219;BME280;56232;53.384;-2.732;2022-12-07T06:54:27;102062.46;;;-1.45;40.53
69219;BME280;56232;53.384;-2.732;2022-12-07T06:56:53;102060.56;;;-1.41;40.52
69219;BME280;56232;53.384;-2.732;2022-12-07T06:59:18;102064.87;;;-0.87;40.38
69219;BME280;56232;53.384;-2.732;2022-12-07T07:01:44;102064.51;;;-1.41;40.44
69219;BME280;56232;53.384;-2.732;2022-12-07T07:04:09;102064.55;;;-0.93;40.39
69219;BME280;56232;53.384;-2.732;2022-12-07T07:06:35;102066.97;;;-0.84;40.42
69219;BME280;56232;53.384;-2.732;2022-12-07T07:09:00;102064.72;;;-1.30;40.34
69219;BME280;56232;53.384;-2.732;2022-12-07T07:11:26;102063.00;;;-0.25;40.31
69219;BME280;56232;53.384;-2.732;2022-12-07T07:13:51;102059.62;;;-0.91;40.38
69219;BME280;56232;53.384;-2.732;2022-12-07T07:16:17;102055.54;;;-0.33;40.22
69219;BME280;56232;53.384;-2.732;2022-12-07T07:18:42;102052.06;;;-1.08;40.39
69219;BME280;56232;53.384;-2.732;2022-12-07T07:21:08;102051.07;;;-1.08;40.32
69219;BME280;56232;53.384;-2.732;2022-12-07T07:23:33;102048.23;;;-1.01;40.29
69219;BME280;56232;53.384;-2.732;2022-12-07T07:25:59;102046.29;;;-1.00;40.27
69219;BME280;56232;53.384;-2.732;2022-12-07T07:28:24;102045.73;;;-0.96;40.35
69219;BME280;56232;53.384;-2.732;2022-12-07T07:30:49;102046.88;;;-1.39;40.29
69219;BME280;56232;53.384;-2.732;2022-12-07T07:33:15;102048.35;;;-0.18;40.23
69219;BME280;56232;53.384;-2.732;2022-12-07T07:35:41;102047.63;;;-1.15;40.14
69219;BME280;56232;53.384;-2.732;2022-12-07T07:38:07;102046.97;;;-1.01;40.17
69219;BME280;56232;53.384;-2.732;2022-12-07T07:40:32;102046.19;;;-0.77;39.90
69219;BME280;56232;53.384;-2.732;2022-12-07T07:42:58;102046.45;;;-0.09;39.93
69219;BME280;56232;53.384;-2.732;2022-12-07T07:45:24;102046.35;;;0.53;39.91
69219;BME280;56232;53.384;-2.732;2022-12-07T07:47:49;102045.42;;;-0.51;39.94
69219;BME280;56232;53.384;-2.732;2022-12-07T07:50:15;102043.20;;;-0.37;39.90
69219;BME280;56232;53.384;-2.732;2022-12-07T07:52:41;102044.06;;;0.23;39.81
69219;BME280;56232;53.384;-2.732;2022-12-07T07:55:06;102047.74;;;-0.14;39.77
69219;BME280;56232;53.384;-2.732;2022-12-07T07:57:31;102049.40;;;0.00;39.66
69219;BME280;56232;53.384;-2.732;2022-12-07T07:59:56;102047.08;;;0.06;39.53
69219;BME280;56232;53.384;-2.732;2022-12-07T08:02:22;102041.05;;;0.09;39.43
69219;BME280;56232;53.384;-2.732;2022-12-07T08:04:47;102044.32;;;0.05;39.60
69219;BME280;56232;53.384;-2.732;2022-12-07T08:07:14;102045.70;;;0.13;39.56
69219;BME280;56232;53.384;-2.732;2022-12-07T08:09:39;102045.72;;;-0.42;39.57
69219;BME280;56232;53.384;-2.732;2022-12-07T08:12:04;102044.48;;;0.26;39.61
69219;BME280;56232;53.384;-2.732;2022-12-07T08:14:30;102041.83;;;-0.25;39.58
69219;BME280;56232;53.384;-2.732;2022-12-07T08:16:55;102042.39;;;-0.12;39.46
69219;BME280;56232;53.384;-2.732;2022-12-07T08:19:20;102043.04;;;0.54;39.34
69219;BME280;56232;53.384;-2.732;2022-12-07T08:21:46;102041.23;;;-0.17;39.29
69219;BME280;56232;53.384;-2.732;2022-12-07T08:24:11;102041.42;;;0.27;39.33
69219;BME280;56232;53.384;-2.732;2022-12-07T08:26:36;102038.59;;;-0.50;39.29
69219;BME280;56232;53.384;-2.732;2022-12-07T08:29:02;102035.51;;;-0.07;39.41
69219;BME280;56232;53.384;-2.732;2022-12-07T08:31:27;102040.28;;;-0.13;39.38
69219;BME280;56232;53.384;-2.732;2022-12-07T08:33:52;102038.91;;;-0.23;39.41
69219;BME280;56232;53.384;-2.732;2022-12-07T08:36:18;102042.36;;;-0.30;39.43
69219;BME280;56232;53.384;-2.732;2022-12-07T08:38:44;102042.57;;;-0.42;39.45
69219;BME280;56232;53.384;-2.732;2022-12-07T08:41:09;102048.83;;;-1.05;39.46
69219;BME280;56232;53.384;-2.732;2022-12-07T08:43:35;102048.22;;;-0.49;39.42
69219;BME280;56232;53.384;-2.732;2022-12-07T08:46:06;102045.56;;;-0.50;39.42
69219;BME280;56232;53.384;-2.732;2022-12-07T08:48:25;102046.45;;;-0.45;39.30
69219;BME280;56232;53.384;-2.732;2022-12-07T08:50:51;102050.48;;;-0.53;39.34
69219;BME280;56232;53.384;-2.732;2022-12-07T08:53:16;102050.84;;;-0.61;39.44
69219;BME280;56232;53.384;-2.732;2022-12-07T08:55:43;102051.85;;;-0.09;39.39
69219;BME280;56232;53.384;-2.732;2022-12-07T08:58:07;102054.99;;;-0.50;39.33
69219;BME280;56232;53.384;-2.732;2022-12-07T09:00:32;102057.00;;;-0.57;39.33
69219;BME280;56232;53.384;-2.732;2022-12-07T09:02:57;102056.87;;;-0.59;39.34
69219;BME280;56232;53.384;-2.732;2022-12-07T09:05:23;102057.39;;;-0.56;39.27
69219;BME280;56232;53.384;-2.732;2022-12-07T09:07:50;102060.03;;;-0.63;39.36
69219;BME280;56232;53.384;-2.732;2022-12-07T09:10:14;102057.60;;;-0.61;39.41
69219;BME280;56232;53.384;-2.732;2022-12-07T09:12:40;102052.92;;;-0.01;39.33
69219;BME280;56232;53.384;-2.732;2022-12-07T09:15:05;102047.41;;;0.07;39.29
69219;BME280;56232;53.384;-2.732;2022-12-07T09:17:32;102049.75;;;-0.22;39.25
69219;BME280;56232;53.384;-2.732;2022-12-07T09:19:55;102047.54;;;0.02;39.23
69219;BME280;56232;53.384;-2.732;2022-12-07T09:22:21;102043.61;;;-0.35;39.13
69219;BME280;56232;53.384;-2.732;2022-12-07T09:24:47;102040.26;;;-0.05;39.07
69219;BME280;56232;53.384;-2.732;2022-12-07T09:27:12;102033.26;;;0.29;39.06
69219;BME280;56232;53.384;-2.732;2022-12-07T09:29:39;102035.86;;;1.10;38.72
69219;BME280;56232;53.384;-2.732;2022-12-07T09:32:04;102032.01;;;1.56;38.23
69219;BME280;56232;53.384;-2.732;2022-12-07T09:34:30;102031.44;;;2.14;37.92
69219;BME280;56232;53.384;-2.732;2022-12-07T09:36:56;102026.35;;;2.08;37.77
69219;BME280;56232;53.384;-2.732;2022-12-07T09:39:21;102027.00;;;1.60;37.84
69219;BME280;56232;53.384;-2.732;2022-12-07T09:41:47;102028.40;;;2.66;37.88
69219;BME280;56232;53.384;-2.732;2022-12-07T09:44:16;102025.44;;;1.46;37.88
69219;BME280;56232;53.384;-2.732;2022-12-07T09:46:42;102026.44;;;1.30;37.78
69219;BME280;56232;53.384;-2.732;2022-12-07T09:49:04;102029.90;;;1.14;37.71
69219;BME280;56232;53.384;-2.732;2022-12-07T09:51:29;102027.37;;;1.59;37.68
69219;BME280;56232;53.384;-2.732;2022-12-07T09:53:56;102028.63;;;0.82;37.60
69219;BME280;56232;53.384;-2.732;2022-12-07T09:56:22;102026.40;;;1.78;37.78
69219;BME280;56232;53.384;-2.732;2022-12-07T09:58:46;102028.05;;;1.23;37.87
69219;BME280;56232;53.384;-2.732;2022-12-07T10:01:14;102032.46;;;1.25;37.93
69219;BME280;56232;53.384;-2.732;2022-12-07T10:03:40;102034.58;;;1.80;37.76
69219;BME280;56232;53.384;-2.732;2022-12-07T10:06:04;102032.01;;;1.74;37.86
69219;BME280;56232;53.384;-2.732;2022-12-07T10:08:27;102030.95;;;1.77;37.71
69219;BME280;56232;53.384;-2.732;2022-12-07T10:10:55;102027.72;;;1.80;37.89
69219;BME280;56232;53.384;-2.732;2022-12-07T10:13:20;102029.36;;;1.40;37.83
69219;BME280;56232;53.384;-2.732;2022-12-07T10:15:47;102026.86;;;1.39;37.72
69219;BME280;56232;53.384;-2.732;2022-12-07T10:18:17;102026.54;;;1.94;37.80
69219;BME280;56232;53.384;-2.732;2022-12-07T10:20:36;102024.26;;;0.87;37.81
69219;BME280;56232;53.384;-2.732;2022-12-07T10:23:03;102024.34;;;2.02;37.81
69219;BME280;56232;53.384;-2.732;2022-12-07T10:25:29;102020.25;;;2.20;37.68
69219;BME280;56232;53.384;-2.732;2022-12-07T10:27:57;102019.55;;;1.10;37.63
69219;BME280;56232;53.384;-2.732;2022-12-07T10:30:17;102018.20;;;2.30;37.51
69219;BME280;56232;53.384;-2.732;2022-12-07T10:32:42;102017.09;;;2.32;37.55
69219;BME280;56232;53.384;-2.732;2022-12-07T10:35:18;102015.07;;;1.28;37.53
69219;BME280;56232;53.384;-2.732;2022-12-07T10:37:40;102013.76;;;1.92;37.45
69219;BME280;56232;53.384;-2.732;2022-12-07T10:39:58;102010.16;;;1.92;37.47
69219;BME280;56232;53.384;-2.732;2022-12-07T10:42:25;102007.14;;;2.41;37.37
69219;BME280;56232;53.384;-2.732;2022-12-07T10:44:50;102006.89;;;2.43;37.58
69219;BME280;56232;53.384;-2.732;2022-12-07T10:47:23;101999.84;;;2.11;37.50
69219;BME280;56232;53.384;-2.732;2022-12-07T10:52:09;101994.04;;;2.30;37.46
69219;BME280;56232;53.384;-2.732;2022-12-07T10:54:38;101989.41;;;1.80;37.41
69219;BME280;56232;53.384;-2.732;2022-12-07T10:57:07;101988.68;;;1.92;37.40
69219;BME280;56232;53.384;-2.732;2022-12-07T10:59:39;101984.70;;;2.12;37.28
69219;BME280;56232;53.384;-2.732;2022-12-07T11:01:51;101980.98;;;2.85;37.20
69219;BME280;56232;53.384;-2.732;2022-12-07T11:04:24;101979.21;;;2.35;37.22
69219;BME280;56232;53.384;-2.732;2022-12-07T11:06:45;101974.15;;;2.44;37.04
69219;BME280;56232;53.384;-2.732;2022-12-07T11:11:35;101966.12;;;2.55;36.90
69219;BME280;56232;53.384;-2.732;2022-12-07T11:14:03;101962.78;;;2.58;36.86
69219;BME280;56232;53.384;-2.732;2022-12-07T11:16:32;101956.80;;;3.20;36.86
69219;BME280;56232;53.384;-2.732;2022-12-07T11:18:59;101955.19;;;2.67;36.87
69219;BME280;56232;53.384;-2.732;2022-12-07T11:21:20;101949.67;;;2.79;36.84
69219;BME280;56232;53.384;-2.732;2022-12-07T11:23:48;101951.48;;;2.84;36.67
69219;BME280;56232;53.384;-2.732;2022-12-07T11:26:13;101949.99;;;2.39;36.43
69219;BME280;56232;53.384;-2.732;2022-12-07T11:28:44;101946.39;;;2.93;36.74
69219;BME280;56232;53.384;-2.732;2022-12-07T11:31:05;101939.82;;;3.13;36.72
69219;BME280;56232;53.384;-2.732;2022-12-07T11:33:29;101940.08;;;3.17;36.56
69219;BME280;56232;53.384;-2.732;2022-12-07T11:35:57;101941.76;;;2.80;36.50
69219;BME280;56232;53.384;-2.732;2022-12-07T11:38:16;101941.07;;;3.40;36.46
69219;BME280;56232;53.384;-2.732;2022-12-07T11:40:43;101936.18;;;3.40;36.53
69219;BME280;56232;53.384;-2.732;2022-12-07T11:43:14;101936.56;;;2.95;36.40
69219;BME280;56232;53.384;-2.732;2022-12-07T11:45:34;101933.77;;;3.12;36.25
69219;BME280;56232;53.384;-2.732;2022-12-07T11:48:01;101932.98;;;2.83;36.17
69219;BME280;56232;53.384;-2.732;2022-12-07T11:50:27;101933.56;;;3.57;35.94
69219;BME280;56232;53.384;-2.732;2022-12-07T11:52:53;101932.72;;;4.07;35.86
69219;BME280;56232;53.384;-2.732;2022-12-07T11:55:21;101924.36;;;3.28;35.49
69219;BME280;56232;53.384;-2.732;2022-12-07T11:57:44;101922.33;;;3.99;35.51
69219;BME280;56232;53.384;-2.732;2022-12-07T12:00:14;101914.57;;;3.69;35.47
69219;BME280;56232;53.384;-2.732;2022-12-07T12:02:37;101910.11;;;3.91;35.28
69219;BME280;56232;53.384;-2.732;2022-12-07T12:05:05;101904.16;;;3.93;35.45
69219;BME280;56232;53.384;-2.732;2022-12-07T12:07:27;101894.38;;;4.10;35.51
69219;BME280;56232;53.384;-2.732;2022-12-07T12:09:54;101894.97;;;4.16;35.32
69219;BME280;56232;53.384;-2.732;2022-12-07T12:12:29;101894.92;;;4.29;35.18
69219;BME280;56232;53.384;-2.732;2022-12-07T12:14:48;101888.70;;;4.32;35.11
69219;BME280;56232;53.384;-2.732;2022-12-07T12:17:21;101885.08;;;4.43;35.16
69219;BME280;56232;53.384;-2.732;2022-12-07T12:19:36;101880.94;;;4.49;34.88
69219;BME280;56232;53.384;-2.732;2022-12-07T12:22:06;101875.73;;;4.62;35.18
69219;BME280;56232;53.384;-2.732;2022-12-07T12:24:27;101875.42;;;4.08;35.35
69219;BME280;56232;53.384;-2.732;2022-12-07T12:26:53;101870.65;;;4.65;35.39
69219;BME280;56232;53.384;-2.732;2022-12-07T12:29:23;101865.96;;;3.58;35.22
69219;BME280;56232;53.384;-2.732;2022-12-07T12:31:42;101864.64;;;4.84;34.65
69219;BME280;56232;53.384;-2.732;2022-12-07T12:39:09;101848.91;;;4.56;34.64
69219;BME280;56232;53.384;-2.732;2022-12-07T12:43:52;101842.35;;;4.16;34.84
69219;BME280;56232;53.384;-2.732;2022-12-07T12:48:43;101838.24;;;4.31;34.66
69219;BME280;56232;53.384;-2.732;2022-12-07T12:53:34;101840.01;;;4.59;34.98